Time;durP1;ratioP1;P1;durP2;ratioP2;P2;SDS_P1;SDS_P2;PMS_P1;PMS_P2;Temp;Humidity;BMP_temperature;BMP_pressure;BME280_temperature;BME280_humidity;BME280_pressure;Samples;Min_cycle;Max_cycle;Signal;HPM_P1;HPM_P2
2021/05/03 00:02:38;;;;;;;;;;;;;;;17.16;65.51;100848.59;4998122;28;19914;-78
2021/05/03 00:05:25;;;;;;;;;;;;;;;17.17;65.71;100847.44;4998602;28;20529;-78
2021/05/03 00:08:09;;;;;;;;;;;;;;;17.21;65.94;100851.88;5008194;23;19926;-77
2021/05/03 00:10:54;;;;;;;;;;;;;;;17.20;65.89;100846.72;4961075;28;19918;-77
2021/05/03 00:13:39;;;;;;;;;;;;;;;17.23;66.13;100854.25;4965377;28;19914;-77
2021/05/03 00:19:27;;;;;;;;;;;;;;;17.32;65.86;100860.38;4974491;28;19914;-77
2021/05/03 00:22:11;;;;;;;;;;;;;;;17.28;66.19;100851.22;4965975;28;19914;-77
2021/05/03 00:24:56;;;;;;;;;;;;;;;17.28;66.43;100853.97;4978420;28;19914;-77
2021/05/03 00:27:41;;;;;;;;;;;;;;;17.19;64.01;100850.63;4976769;28;19914;-77
2021/05/03 00:30:26;;;;;;;;;;;;;;;17.05;63.61;100862.06;4975084;28;20384;-77
2021/05/03 00:36:14;;;;;;;;;;;;;;;16.74;62.87;100857.34;4974784;28;20388;-77
2021/05/03 00:38:59;;;;;;;;;;;;;;;16.69;63.79;100860.38;4975493;28;19914;-77
2021/05/03 00:41:44;;;;;;;;;;;;;;;16.64;63.53;100879.84;4978191;28;19913;-77
2021/05/03 00:44:30;;;;;;;;;;;;;;;16.69;62.93;100882.34;4975405;28;19917;-77
2021/05/03 00:47:14;;;;;;;;;;;;;;;16.61;63.70;100886.03;4979751;28;20379;-77
2021/05/03 00:49:59;;;;;;;;;;;;;;;16.68;64.67;100892.53;4976370;28;19921;-77
2021/05/03 00:52:44;;;;;;;;;;;;;;;16.78;65.41;100896.69;4976201;28;20384;-76
2021/05/03 00:58:34;;;;;;;;;;;;;;;16.64;62.98;100899.06;4961112;28;19914;-77
2021/05/03 01:01:19;;;;;;;;;;;;;;;16.59;63.68;100907.56;4973729;28;19914;-76
2021/05/03 01:04:03;;;;;;;;;;;;;;;16.49;63.26;100910.78;4978914;28;19914;-77
2021/05/03 01:06:48;;;;;;;;;;;;;;;16.44;63.60;100919.25;4973858;28;20529;-77
2021/05/03 01:09:33;;;;;;;;;;;;;;;16.36;63.58;100917.44;4973787;28;19918;-76
2021/05/03 01:12:37;;;;;;;;;;;;;;;16.24;63.03;100915.56;4972842;28;20380;-78
2021/05/03 01:15:23;;;;;;;;;;;;;;;16.26;62.65;100919.56;4976886;28;19917;-76
2021/05/03 01:18:08;;;;;;;;;;;;;;;16.23;63.49;100925.75;4975325;28;19914;-77
2021/05/03 01:20:54;;;;;;;;;;;;;;;16.20;63.17;100926.41;4957733;28;19914;-77
2021/05/03 01:23:38;;;;;;;;;;;;;;;16.24;63.71;100924.59;4974114;28;19914;-76
2021/05/03 01:26:24;;;;;;;;;;;;;;;16.13;63.01;100931.72;4973752;28;20300;-76
2021/05/03 01:32:32;;;;;;;;;;;;;;;16.20;63.80;100936.63;4972397;28;19914;-77
2021/05/03 01:35:17;;;;;;;;;;;;;;;16.17;64.12;100942.78;4971733;28;20296;-77
2021/05/03 01:41:06;;;;;;;;;;;;;;;16.36;64.56;100950.38;4973536;28;19925;-76
2021/05/03 01:47:13;;;;;;;;;;;;;;;16.57;66.34;100961.97;4973303;28;19914;-77
2021/05/03 01:50:17;;;;;;;;;;;;;;;16.66;66.19;100971.69;4970898;28;19926;-76
2021/05/03 01:53:05;;;;;;;;;;;;;;;16.66;64.41;100968.16;4972570;28;19989;-76
2021/05/03 01:55:51;;;;;;;;;;;;;;;16.71;64.72;100964.38;4966281;28;19914;-76
2021/05/03 01:58:35;;;;;;;;;;;;;;;16.54;63.24;100960.75;4975907;28;19914;-76
2021/05/03 02:01:20;;;;;;;;;;;;;;;16.43;63.81;100958.84;4973395;28;20592;-76
2021/05/03 02:04:08;;;;;;;;;;;;;;;16.34;62.79;100967.22;4973003;28;19913;-76
2021/05/03 02:06:53;;;;;;;;;;;;;;;16.32;63.82;100965.97;4976119;28;19914;-76
2021/05/03 02:09:40;;;;;;;;;;;;;;;16.36;63.70;100967.66;4974825;28;19918;-76
2021/05/03 02:12:24;;;;;;;;;;;;;;;16.45;64.50;100970.28;4972255;28;19914;-76
2021/05/03 02:18:13;;;;;;;;;;;;;;;16.59;65.64;100978.94;4973752;28;20323;-77
2021/05/03 02:20:57;;;;;;;;;;;;;;;16.62;65.12;100980.97;4977225;28;19914;-76
2021/05/03 02:23:42;;;;;;;;;;;;;;;16.70;65.47;100988.28;4975034;28;19914;-76
2021/05/03 02:29:29;;;;;;;;;;;;;;;16.62;64.06;100987.28;4972126;28;19914;-76
2021/05/03 02:32:36;;;;;;;;;;;;;;;16.63;64.80;100988.88;4971104;28;20071;-76
2021/05/03 02:35:21;;;;;;;;;;;;;;;16.61;66.28;100990.38;4970258;28;19918;-76
2021/05/03 02:38:08;;;;;;;;;;;;;;;16.51;63.50;100979.84;4971981;28;19914;-76
2021/05/03 02:40:53;;;;;;;;;;;;;;;16.46;62.88;100978.16;4972882;28;19929;-76
2021/05/03 02:43:37;;;;;;;;;;;;;;;16.31;62.14;100965.16;4970307;28;19914;-76
2021/05/03 02:46:22;;;;;;;;;;;;;;;16.26;61.62;100971.69;4967651;28;19914;-76
2021/05/03 02:49:07;;;;;;;;;;;;;;;16.02;62.01;100963.50;4973327;28;19914;-77
2021/05/03 02:51:53;;;;;;;;;;;;;;;15.76;64.29;100968.56;4973361;28;19918;-77
2021/05/03 02:54:37;;;;;;;;;;;;;;;15.72;64.98;100975.88;4977619;28;19914;-77
2021/05/03 02:57:21;;;;;;;;;;;;;;;15.83;66.45;100974.28;4971470;28;19914;-77
2021/05/03 03:00:07;;;;;;;;;;;;;;;15.90;64.05;100973.72;4972521;28;20308;-75
2021/05/03 03:02:52;;;;;;;;;;;;;;;15.88;64.49;100974.06;4965254;28;19914;-76
2021/05/03 03:05:37;;;;;;;;;;;;;;;15.97;64.22;100971.97;4974526;28;20299;-76
2021/05/03 03:08:21;;;;;;;;;;;;;;;15.92;66.21;100980.44;4972366;28;20321;-76
2021/05/03 03:11:06;;;;;;;;;;;;;;;15.96;64.91;100991.53;4962042;28;19922;-76
2021/05/03 03:13:50;;;;;;;;;;;;;;;15.96;64.67;100999.75;4975923;28;19918;-75
2021/05/03 03:16:35;;;;;;;;;;;;;;;16.01;64.58;101007.75;4973033;28;19914;-76
2021/05/03 03:19:20;;;;;;;;;;;;;;;15.95;63.73;101007.19;4972205;28;19914;-76
2021/05/03 03:22:06;;;;;;;;;;;;;;;15.94;64.46;101019.31;4976809;28;19922;-76
2021/05/03 03:24:51;;;;;;;;;;;;;;;16.00;64.60;101030.84;4976963;28;19918;-76
2021/05/03 03:27:36;;;;;;;;;;;;;;;16.04;65.05;101031.75;4969642;28;19919;-76
2021/05/03 03:30:21;;;;;;;;;;;;;;;16.06;65.20;101038.50;4974791;28;19952;-76
2021/05/03 03:33:06;;;;;;;;;;;;;;;16.04;64.81;101046.28;4968580;28;20296;-75
2021/05/03 03:35:51;;;;;;;;;;;;;;;16.08;65.98;101043.63;4980438;28;19926;-76
2021/05/03 03:38:35;;;;;;;;;;;;;;;16.10;65.26;101053.13;4975041;28;20392;-76
2021/05/03 03:41:39;;;;;;;;;;;;;;;16.12;65.41;101056.31;4977827;28;20525;-76
2021/05/03 03:44:23;;;;;;;;;;;;;;;16.08;66.15;101055.41;4979772;28;19914;-76
2021/05/03 03:47:07;;;;;;;;;;;;;;;16.09;67.10;101056.22;4976209;28;19914;-76
2021/05/03 03:49:52;;;;;;;;;;;;;;;15.96;64.74;101060.09;4962886;28;19918;-76
2021/05/03 03:52:37;;;;;;;;;;;;;;;15.98;64.82;101072.34;4979276;28;19914;-76
2021/05/03 03:55:22;;;;;;;;;;;;;;;16.06;66.42;101081.56;4976498;28;19925;-76
2021/05/03 03:58:07;;;;;;;;;;;;;;;16.12;68.01;101082.97;4970741;28;19917;-76
2021/05/03 04:00:51;;;;;;;;;;;;;;;16.17;68.63;101093.69;4980032;28;19918;-76
2021/05/03 04:03:38;;;;;;;;;;;;;;;16.09;66.25;101086.41;4976724;28;19914;-75
2021/05/03 04:09:38;;;;;;;;;;;;;;;16.13;67.17;101084.56;4968407;28;19914;-76
2021/05/03 04:12:36;;;;;;;;;;;;;;;16.11;66.14;101082.16;4975466;28;19917;-75
2021/05/03 04:30:37;;;;;;;;;;;;;;;16.00;64.49;101124.13;4950776;28;19918;-75
2021/05/03 04:33:23;;;;;;;;;;;;;;;16.09;66.07;101122.88;4957264;28;19922;-76
2021/05/03 04:36:09;;;;;;;;;;;;;;;16.23;66.46;101128.81;4974470;28;19914;-76
2021/05/03 04:39:12;;;;;;;;;;;;;;;16.12;64.47;101132.34;4974114;28;20304;-76
2021/05/03 04:41:57;;;;;;;;;;;;;;;15.86;64.19;101138.13;4973766;28;19917;-76
2021/05/03 04:44:42;;;;;;;;;;;;;;;15.86;68.67;101140.88;4974894;28;19914;-76
2021/05/03 04:47:27;;;;;;;;;;;;;;;15.98;66.26;101143.66;4977354;28;19918;-77
2021/05/03 04:50:12;;;;;;;;;;;;;;;15.97;65.79;101142.06;4974877;28;19922;-77
2021/05/03 04:52:56;;;;;;;;;;;;;;;15.95;64.80;101141.56;4972469;28;19914;-76
2021/05/03 04:55:40;;;;;;;;;;;;;;;15.78;64.67;101152.75;4977258;28;19917;-77
2021/05/03 04:58:25;;;;;;;;;;;;;;;15.57;64.79;101160.25;4976264;28;19914;-76
2021/05/03 05:01:10;;;;;;;;;;;;;;;15.56;64.23;101172.34;4969485;28;19914;-77
2021/05/03 05:03:54;;;;;;;;;;;;;;;15.67;64.96;101181.75;4977349;28;19913;-76
2021/05/03 05:06:39;;;;;;;;;;;;;;;15.88;66.24;101196.22;4975062;28;19913;-76
2021/05/03 05:09:24;;;;;;;;;;;;;;;15.95;65.61;101203.91;4973299;28;19914;-76
2021/05/03 05:12:08;;;;;;;;;;;;;;;16.03;63.84;101212.03;4962535;28;19918;-77
2021/05/03 05:15:11;;;;;;;;;;;;;;;15.88;66.46;101220.91;4976160;28;19914;-77
2021/05/03 05:18:15;;;;;;;;;;;;;;;15.79;65.21;101223.72;4976528;28;19917;-76
2021/05/03 05:20:59;;;;;;;;;;;;;;;15.80;64.62;101230.78;4948388;28;19914;-77
2021/05/03 05:23:44;;;;;;;;;;;;;;;15.85;65.39;101242.72;4974045;28;19914;-77
2021/05/03 05:26:29;;;;;;;;;;;;;;;15.83;65.56;101251.28;4979845;28;19913;-77
2021/05/03 05:29:14;;;;;;;;;;;;;;;15.88;64.49;101253.81;4956245;28;19915;-77
2021/05/03 05:31:59;;;;;;;;;;;;;;;16.07;67.26;101262.31;4971710;28;19918;-78
2021/05/03 05:34:43;;;;;;;;;;;;;;;16.31;68.84;101255.28;4976974;28;20389;-78
2021/05/03 05:37:28;;;;;;;;;;;;;;;16.47;68.42;101265.25;4978189;28;19914;-78
2021/05/03 05:40:12;;;;;;;;;;;;;;;16.62;68.33;101264.63;4974164;28;19914;-78
2021/05/03 05:42:57;;;;;;;;;;;;;;;16.71;68.16;101267.25;4977889;28;19914;-77
2021/05/03 05:48:46;;;;;;;;;;;;;;;16.85;67.62;101278.72;4974794;28;19933;-77
2021/05/03 05:51:31;;;;;;;;;;;;;;;16.86;67.48;101285.81;4978473;28;20392;-77
2021/05/03 05:54:36;;;;;;;;;;;;;;;16.84;67.48;101290.03;4976677;28;19914;-77
2021/05/03 05:57:21;;;;;;;;;;;;;;;16.86;67.32;101294.06;4959048;28;19913;-76
2021/05/03 06:00:06;;;;;;;;;;;;;;;16.90;67.27;101294.16;4977859;28;19914;-76
2021/05/03 06:02:58;;;;;;;;;;;;;;;16.94;67.08;101295.88;4973440;28;19914;-77
2021/05/03 06:05:42;;;;;;;;;;;;;;;16.94;67.12;101293.13;4973635;28;19914;-77
2021/05/03 06:08:27;;;;;;;;;;;;;;;16.96;66.77;101287.31;5031834;23;19921;-77
2021/05/03 06:11:13;;;;;;;;;;;;;;;16.97;66.59;101286.13;4995634;28;19918;-77
2021/05/03 06:13:57;;;;;;;;;;;;;;;16.95;66.34;101271.97;4997896;28;19913;-79
2021/05/03 06:16:41;;;;;;;;;;;;;;;16.87;65.42;101276.41;5002685;28;19913;-77
2021/05/03 06:19:26;;;;;;;;;;;;;;;16.73;64.82;101281.44;4981697;28;19914;-77
2021/05/03 06:25:14;;;;;;;;;;;;;;;16.25;60.42;101277.44;4979336;28;19914;-77
2021/05/03 06:28:00;;;;;;;;;;;;;;;16.36;61.65;101285.25;4977989;28;19914;-76
2021/05/03 06:30:46;;;;;;;;;;;;;;;16.44;65.19;101284.38;4976320;28;20311;-77
2021/05/03 06:33:31;;;;;;;;;;;;;;;16.42;62.80;101278.41;4980650;28;20296;-77
2021/05/03 06:36:15;;;;;;;;;;;;;;;16.38;61.28;101280.22;4979394;28;19914;-78
2021/05/03 06:39:00;;;;;;;;;;;;;;;16.27;60.80;101274.38;4976665;28;19914;-79
2021/05/03 06:41:45;;;;;;;;;;;;;;;16.23;61.58;101281.69;4980015;28;19914;-76
2021/05/03 06:44:30;;;;;;;;;;;;;;;16.43;64.11;101286.31;4978439;28;19913;-79
2021/05/03 06:47:16;;;;;;;;;;;;;;;16.54;64.94;101292.97;4976951;28;19913;-77
2021/05/03 06:50:01;;;;;;;;;;;;;;;16.60;64.96;101299.88;4980054;28;19914;-79
2021/05/03 06:52:45;;;;;;;;;;;;;;;16.62;63.25;101311.31;4975407;28;19918;-80
2021/05/03 06:55:30;;;;;;;;;;;;;;;16.38;60.08;101318.66;4975683;28;19914;-80
2021/05/03 06:58:15;;;;;;;;;;;;;;;16.43;62.64;101324.75;4984622;28;20304;-78
2021/05/03 07:01:01;;;;;;;;;;;;;;;16.40;61.02;101327.38;4981936;28;19914;-77
2021/05/03 07:06:50;;;;;;;;;;;;;;;16.32;61.17;101329.06;4983840;28;19913;-80
2021/05/03 07:09:35;;;;;;;;;;;;;;;15.96;58.00;101328.91;4979343;28;19914;-78
2021/05/03 07:12:22;;;;;;;;;;;;;;;16.16;60.35;101322.59;4968912;28;19922;-80
2021/05/03 07:15:08;;;;;;;;;;;;;;;16.29;61.41;101328.94;4973081;28;20312;-78
2021/05/03 07:20:55;;;;;;;;;;;;;;;16.10;56.58;101332.97;4974937;28;19915;-78
2021/05/03 07:23:40;;;;;;;;;;;;;;;16.26;60.53;101331.19;4970981;28;19919;-79
2021/05/03 07:26:26;;;;;;;;;;;;;;;16.25;57.91;101332.34;4970770;28;19918;-78
2021/05/03 07:29:11;;;;;;;;;;;;;;;16.48;62.58;101337.44;4970897;28;20288;-78
2021/05/03 07:35:19;;;;;;;;;;;;;;;16.38;57.55;101348.84;4971522;28;19918;-80
2021/05/03 07:41:07;;;;;;;;;;;;;;;19.75;42.58;101348.34;4961183;28;20301;-76
2021/05/03 07:46:55;;;;;;;;;;;;;;;18.23;47.37;101350.84;4962573;28;19914;-78
2021/05/03 07:53:02;;;;;;;;;;;;;;;17.95;51.20;101348.06;4965095;28;19918;-79
2021/05/03 07:56:07;;;;;;;;;;;;;;;18.15;51.76;101346.28;4965979;28;19915;-77
2021/05/03 07:58:57;;;;;;;;;;;;;;;18.20;51.40;101348.78;4968692;28;20388;-81
2021/05/03 08:01:42;;;;;;;;;;;;;;;18.18;45.88;101348.34;4965714;28;19914;-77
2021/05/03 08:04:27;;;;;;;;;;;;;;;17.72;44.26;101358.03;4980740;28;19914;-78
2021/05/03 08:07:12;;;;;;;;;;;;;;;17.90;48.38;101349.13;4982179;28;19914;-78
2021/05/03 08:10:15;;;;;;;;;;;;;;;17.98;47.38;101350.13;4979400;28;19914;-76
2021/05/03 08:13:00;;;;;;;;;;;;;;;18.02;45.84;101353.81;4985674;28;20388;-79
2021/05/03 08:18:48;;;;;;;;;;;;;;;18.26;45.23;101363.91;4978695;28;20400;-78
2021/05/03 08:21:33;;;;;;;;;;;;;;;18.22;44.86;101360.25;4976675;28;19994;-77
2021/05/03 08:24:17;;;;;;;;;;;;;;;18.19;46.78;101372.75;4980283;28;19914;-76
2021/05/03 08:27:20;;;;;;;;;;;;;;;18.24;45.33;101364.25;4978093;28;19914;-78
2021/05/03 08:30:07;;;;;;;;;;;;;;;18.11;44.22;101359.16;4982126;28;19914;-77
2021/05/03 08:32:52;;;;;;;;;;;;;;;17.93;44.44;101359.44;4979784;28;19917;-77
2021/05/03 08:35:37;;;;;;;;;;;;;;;17.99;46.16;101361.94;4979431;28;19914;-76
2021/05/03 08:41:27;;;;;;;;;;;;;;;17.76;44.93;101353.41;4981636;28;19914;-76
2021/05/03 08:44:11;;;;;;;;;;;;;;;17.78;43.97;101353.84;4984805;28;19914;-75
2021/05/03 08:46:57;;;;;;;;;;;;;;;17.85;45.62;101356.81;4981198;28;20384;-78
2021/05/03 08:50:06;;;;;;;;;;;;;;;17.93;44.12;101362.19;4977642;28;19913;-77
2021/05/03 08:52:54;;;;;;;;;;;;;;;17.88;44.19;101356.91;4982026;28;19918;-77
2021/05/03 08:55:39;;;;;;;;;;;;;;;17.81;44.31;101350.41;4980392;28;20132;-77
2021/05/03 08:58:23;;;;;;;;;;;;;;;17.85;44.16;101356.81;4978020;28;19914;-78
2021/05/03 09:01:08;;;;;;;;;;;;;;;17.87;44.67;101349.84;4981334;28;19914;-77
2021/05/03 09:07:33;;;;;;;;;;;;;;;18.07;43.62;101356.31;4978114;28;19914;-78
2021/05/03 09:10:21;;;;;;;;;;;;;;;18.24;44.85;101353.22;4900027;29;19916;-77
2021/05/03 09:13:07;;;;;;;;;;;;;;;18.18;43.51;101359.34;4978725;28;19918;-77
2021/05/03 09:15:52;;;;;;;;;;;;;;;18.28;45.50;101351.41;4983406;28;19914;-77
2021/05/03 09:18:39;;;;;;;;;;;;;;;18.30;45.34;101346.31;4981160;28;19914;-76
2021/05/03 09:21:43;;;;;;;;;;;;;;;18.41;46.17;101341.09;4979641;28;19914;-77
2021/05/03 09:24:29;;;;;;;;;;;;;;;18.42;43.20;101339.16;4982529;28;19914;-76
2021/05/03 09:27:19;;;;;;;;;;;;;;;18.49;44.81;101342.88;4981067;28;19913;-78
2021/05/03 09:30:04;;;;;;;;;;;;;;;18.46;43.25;101345.56;4984134;28;19918;-78
2021/05/03 09:32:48;;;;;;;;;;;;;;;18.52;43.43;101335.88;4978415;28;19918;-76
2021/05/03 09:35:43;;;;;;;;;;;;;;;18.40;41.87;101334.00;4979104;28;19914;-78
2021/05/03 09:41:47;;;;;;;;;;;;;;;18.41;43.55;101335.59;4976977;28;19913;-78
2021/05/03 09:47:37;;;;;;;;;;;;;;;18.62;41.44;101336.19;4980284;28;19914;-78
2021/05/03 09:50:23;;;;;;;;;;;;;;;18.63;42.58;101329.53;4979199;28;20284;-78
2021/05/03 09:53:09;;;;;;;;;;;;;;;18.71;42.47;101334.06;4982976;28;19918;-78
2021/05/03 09:55:54;;;;;;;;;;;;;;;18.76;42.34;101328.28;4982088;28;19914;-78
2021/05/03 09:58:41;;;;;;;;;;;;;;;18.69;40.81;101324.56;4978441;28;19918;-76
2021/05/03 10:04:29;;;;;;;;;;;;;;;18.79;42.95;101324.81;4979407;28;20300;-75
2021/05/03 10:07:17;;;;;;;;;;;;;;;18.80;40.71;101331.91;4977386;28;19914;-77
2021/05/03 10:10:22;;;;;;;;;;;;;;;18.93;42.61;101327.13;4976116;28;19918;-78
2021/05/03 10:13:07;;;;;;;;;;;;;;;18.94;41.67;101325.97;4977464;28;20207;-77
2021/05/03 10:19:19;;;;;;;;;;;;;;;19.01;42.05;101325.34;4978421;28;19914;-78
2021/05/03 10:22:04;;;;;;;;;;;;;;;18.92;42.76;101328.28;4974264;28;19923;-77
2021/05/03 10:25:07;;;;;;;;;;;;;;;18.96;42.35;101329.16;4976185;28;19914;-76
2021/05/03 10:30:57;;;;;;;;;;;;;;;18.90;42.02;101321.50;4968628;28;19913;-78
2021/05/03 10:33:42;;;;;;;;;;;;;;;18.91;40.44;101325.88;4976437;28;20392;-77
2021/05/03 10:36:31;;;;;;;;;;;;;;;18.94;41.19;101314.16;4973942;28;19914;-79
2021/05/03 10:39:16;;;;;;;;;;;;;;;18.96;42.62;101317.34;4978866;28;20395;-77
2021/05/03 10:42:19;;;;;;;;;;;;;;;18.78;41.07;101320.47;4977187;28;19918;-79
2021/05/03 10:45:19;;;;;;;;;;;;;;;18.85;42.60;101316.28;4982693;28;19918;-78
2021/05/03 10:48:23;;;;;;;;;;;;;;;18.95;42.97;101318.47;4979005;28;19914;-77
2021/05/03 10:51:37;;;;;;;;;;;;;;;19.00;40.85;101308.00;4976998;28;19917;-77
2021/05/03 10:57:13;;;;;;;;;;;;;;;19.03;40.13;101307.28;4958384;28;19915;-78
2021/05/03 10:59:59;;;;;;;;;;;;;;;19.17;40.43;101298.53;4973556;28;19914;-79
2021/05/03 11:02:45;;;;;;;;;;;;;;;19.10;39.04;101301.13;4978066;28;19914;-79
2021/05/03 11:05:31;;;;;;;;;;;;;;;19.17;39.90;101291.06;4976318;28;19922;-77
2021/05/03 11:08:34;;;;;;;;;;;;;;;19.09;39.52;101283.81;4975958;28;19917;-77
2021/05/03 11:11:21;;;;;;;;;;;;;;;19.23;39.88;101284.13;4986325;28;19917;-78
2021/05/03 11:14:09;;;;;;;;;;;;;;;19.28;39.08;101280.28;4992807;28;19922;-77
2021/05/03 11:16:55;;;;;;;;;;;;;;;19.37;39.65;101280.88;4994637;28;19914;-77
2021/05/03 11:20:06;;;;;;;;;;;;;;;19.36;39.24;101279.28;4986727;28;20403;-78
2021/05/03 11:23:04;;;;;;;;;;;;;;;19.35;39.48;101282.41;5000236;28;19914;-77
2021/05/03 11:26:25;;;;;;;;;;;;;;;19.35;40.04;101274.13;4997446;28;19913;-77
2021/05/03 11:29:15;;;;;;;;;;;;;;;19.38;40.61;101274.22;4999397;28;19917;-76
2021/05/03 11:38:43;;;;;;;;;;;;;;;19.47;39.04;101263.78;4998269;28;19913;-78
2021/05/03 11:44:39;;;;;;;;;;;;;;;19.44;38.33;101249.91;4985224;28;19913;-77
2021/05/03 11:47:34;;;;;;;;;;;;;;;19.41;38.13;101253.38;4997323;28;19914;-77
2021/05/03 11:50:20;;;;;;;;;;;;;;;19.42;40.27;101253.00;4986624;28;19914;-76
2021/05/03 11:53:05;;;;;;;;;;;;;;;19.36;41.84;101253.66;4999129;28;19918;-76
2021/05/03 11:55:50;;;;;;;;;;;;;;;19.46;40.33;101248.38;4998799;28;19922;-76
2021/05/03 11:58:37;;;;;;;;;;;;;;;19.49;39.49;101239.41;5001418;28;19914;-76
2021/05/03 12:01:24;;;;;;;;;;;;;;;19.49;41.39;101233.09;4999505;28;19925;-75
2021/05/03 12:04:08;;;;;;;;;;;;;;;19.50;38.97;101232.75;5004802;28;19913;-78
2021/05/03 12:06:53;;;;;;;;;;;;;;;19.62;38.04;101229.81;5003069;28;20311;-78
2021/05/03 12:09:38;;;;;;;;;;;;;;;19.55;39.40;101229.69;5020595;23;19930;-75
2021/05/03 12:12:23;;;;;;;;;;;;;;;19.60;39.39;101232.16;4987138;28;20379;-75
2021/05/03 12:15:10;;;;;;;;;;;;;;;19.70;39.78;101229.97;4999796;28;19914;-75
2021/05/03 12:17:55;;;;;;;;;;;;;;;19.72;39.29;101224.88;4996984;28;19913;-75
2021/05/03 12:20:40;;;;;;;;;;;;;;;19.67;39.75;101219.63;4976033;28;19914;-76
2021/05/03 12:23:25;;;;;;;;;;;;;;;19.64;39.78;101224.75;4974928;28;19914;-76
2021/05/03 12:26:09;;;;;;;;;;;;;;;19.79;39.37;101216.72;4974107;28;19913;-74
2021/05/03 12:31:57;;;;;;;;;;;;;;;19.79;37.75;101208.44;4960136;28;19922;-74
2021/05/03 12:34:44;;;;;;;;;;;;;;;19.88;38.60;101217.28;4961251;28;20392;-75
2021/05/03 12:40:35;;;;;;;;;;;;;;;19.91;37.46;101211.06;4974748;28;19914;-74
2021/05/03 12:43:29;;;;;;;;;;;;;;;19.94;38.10;101196.50;4961622;28;19926;-73
2021/05/03 12:46:26;;;;;;;;;;;;;;;19.83;38.36;101201.03;4964697;28;20128;-74
2021/05/03 12:49:17;;;;;;;;;;;;;;;19.93;37.49;101200.44;4958392;28;20392;-74
2021/05/03 12:52:05;;;;;;;;;;;;;;;19.95;37.78;101192.59;4956267;28;19918;-75
2021/05/03 12:55:12;;;;;;;;;;;;;;;19.91;38.60;101192.50;4959605;28;19914;-75
2021/05/03 12:58:05;;;;;;;;;;;;;;;19.84;38.14;101189.63;4957302;28;19919;-73
2021/05/03 13:07:24;;;;;;;;;;;;;;;19.88;37.30;101175.88;4941245;29;19915;-74
2021/05/03 13:23:50;;;;;;;;;;;;;;;19.68;38.98;101152.25;4956905;28;19914;-74
2021/05/03 13:29:27;;;;;;;;;;;;;;;20.25;37.57;101152.09;4942376;29;19914;-74
2021/05/03 13:32:20;;;;;;;;;;;;;;;20.32;38.32;101146.69;4959305;28;20300;-74
2021/05/03 13:35:05;;;;;;;;;;;;;;;20.33;38.38;101147.50;4957838;28;19918;-74
2021/05/03 13:37:50;;;;;;;;;;;;;;;20.39;38.13;101141.28;4955535;28;19914;-74
2021/05/03 13:40:34;;;;;;;;;;;;;;;20.37;38.51;101138.09;4954855;28;19915;-75
2021/05/03 13:43:21;;;;;;;;;;;;;;;20.40;37.31;101131.03;4957665;28;20300;-75
2021/05/03 13:46:05;;;;;;;;;;;;;;;20.28;38.29;101132.00;4954450;29;19919;-74
2021/05/03 13:48:49;;;;;;;;;;;;;;;20.25;38.38;101124.47;4959444;28;19914;-75
2021/05/03 13:51:34;;;;;;;;;;;;;;;20.18;38.25;101121.59;4957760;28;20312;-74
2021/05/03 13:54:19;;;;;;;;;;;;;;;20.27;38.36;101119.34;4956222;28;19915;-74
2021/05/03 13:57:04;;;;;;;;;;;;;;;20.41;38.19;101121.59;4954301;28;19918;-75
2021/05/03 13:59:49;;;;;;;;;;;;;;;20.03;39.24;101122.50;4954128;29;19915;-75
2021/05/03 14:02:34;;;;;;;;;;;;;;;19.88;38.93;101115.16;4956102;28;19918;-74
2021/05/03 14:05:20;;;;;;;;;;;;;;;19.82;38.84;101117.44;4953624;28;19914;-74
2021/05/03 14:08:05;;;;;;;;;;;;;;;19.77;39.03;101114.19;4958205;28;19918;-74
2021/05/03 14:10:50;;;;;;;;;;;;;;;19.68;39.40;101111.66;4953779;28;19914;-74
2021/05/03 14:13:35;;;;;;;;;;;;;;;19.67;38.45;101112.03;4949761;28;19918;-74
2021/05/03 14:16:20;;;;;;;;;;;;;;;19.59;39.34;101108.34;4952324;28;19914;-75
2021/05/03 14:19:09;;;;;;;;;;;;;;;19.49;39.92;101104.25;4963864;28;19914;-74
2021/05/03 14:21:54;;;;;;;;;;;;;;;19.44;40.28;101101.78;4964947;28;19914;-74
2021/05/03 14:24:38;;;;;;;;;;;;;;;19.43;39.93;101100.16;4967612;28;19914;-76
2021/05/03 14:27:24;;;;;;;;;;;;;;;19.48;38.89;101096.31;4964938;28;20303;-74
2021/05/03 14:30:52;;;;;;;;;;;;;;;19.47;39.88;101092.75;4962465;28;19914;-74
2021/05/03 14:34:13;;;;;;;;;;;;;;;19.54;38.74;101092.91;4962939;28;19919;-74
2021/05/03 14:37:00;;;;;;;;;;;;;;;19.54;38.02;101094.84;4968731;28;19914;-74
2021/05/03 14:39:44;;;;;;;;;;;;;;;19.51;38.98;101096.38;4964956;28;19914;-74
2021/05/03 14:42:55;;;;;;;;;;;;;;;19.43;39.27;101091.06;4963584;28;20372;-74
2021/05/03 14:49:04;;;;;;;;;;;;;;;19.40;39.88;101075.25;4939820;28;19914;-73
2021/05/03 14:52:10;;;;;;;;;;;;;;;19.32;38.84;101070.75;4967767;28;19918;-75
2021/05/03 14:54:55;;;;;;;;;;;;;;;19.37;38.33;101070.47;4963571;28;19914;-74
2021/05/03 14:57:40;;;;;;;;;;;;;;;19.51;37.29;101067.97;4967869;28;19914;-74
2021/05/03 15:00:44;;;;;;;;;;;;;;;19.43;38.70;101061.53;4963580;28;19914;-74
2021/05/03 15:03:29;;;;;;;;;;;;;;;19.43;39.47;101055.22;4964175;28;19913;-74
2021/05/03 15:06:15;;;;;;;;;;;;;;;19.35;39.73;101064.53;4968256;28;19914;-74
2021/05/03 15:09:00;;;;;;;;;;;;;;;19.42;39.70;101057.16;4965362;28;20373;-75
2021/05/03 15:15:04;;;;;;;;;;;;;;;19.37;39.53;101043.69;4967433;28;19922;-73
2021/05/03 15:18:11;;;;;;;;;;;;;;;19.20;40.29;101042.19;4966962;28;19914;-74
2021/05/03 15:24:18;;;;;;;;;;;;;;;19.22;39.81;101033.56;4967538;28;19918;-75
2021/05/03 15:27:10;;;;;;;;;;;;;;;19.26;38.54;101034.41;4970441;28;19914;-74
2021/05/03 15:35:47;;;;;;;;;;;;;;;19.19;38.92;101028.78;4954363;28;19914;-74
2021/05/03 15:38:32;;;;;;;;;;;;;;;19.20;38.02;101030.34;4952305;28;19914;-75
2021/05/03 15:41:35;;;;;;;;;;;;;;;19.26;38.56;101031.66;4966441;28;20387;-74
2021/05/03 15:44:24;;;;;;;;;;;;;;;19.22;39.41;101033.56;4969325;28;19914;-75
2021/05/03 15:47:09;;;;;;;;;;;;;;;19.28;38.42;101031.28;4967858;28;19914;-75
2021/05/03 15:49:54;;;;;;;;;;;;;;;19.11;40.36;101021.53;4966816;28;19922;-75
2021/05/03 15:55:42;;;;;;;;;;;;;;;19.11;38.21;101027.84;4969394;28;19914;-75
2021/05/03 15:58:27;;;;;;;;;;;;;;;19.11;39.34;101027.84;4970125;28;19914;-74
2021/05/03 16:01:13;;;;;;;;;;;;;;;19.06;39.54;101025.38;4969132;28;19922;-75
2021/05/03 16:04:00;;;;;;;;;;;;;;;19.04;40.20;101024.16;4966667;28;19917;-75
2021/05/03 16:06:45;;;;;;;;;;;;;;;19.00;40.07;101020.53;4969670;28;19914;-75
2021/05/03 16:09:30;;;;;;;;;;;;;;;19.03;39.35;101019.81;4967109;28;19914;-75
2021/05/03 16:15:18;;;;;;;;;;;;;;;18.96;40.63;101019.66;4969709;28;19918;-74
2021/05/03 16:18:03;;;;;;;;;;;;;;;18.97;40.66;101021.25;4966965;28;19914;-75
2021/05/03 16:21:06;;;;;;;;;;;;;;;19.03;38.53;101019.81;4965255;28;19914;-76
2021/05/03 16:23:52;;;;;;;;;;;;;;;19.08;38.14;101016.75;4968506;28;19914;-75
2021/05/03 16:29:40;;;;;;;;;;;;;;;19.06;37.92;101017.09;4967134;28;19914;-74
2021/05/03 16:32:44;;;;;;;;;;;;;;;19.05;38.67;101017.47;4963389;28;20324;-76
2021/05/03 16:35:29;;;;;;;;;;;;;;;19.09;38.54;101012.84;4960626;28;19917;-76
2021/05/03 16:38:14;;;;;;;;;;;;;;;19.01;38.40;101011.09;4975829;28;20312;-77
2021/05/03 16:40:58;;;;;;;;;;;;;;;19.04;38.00;101011.19;4958827;28;19914;-78
2021/05/03 16:43:43;;;;;;;;;;;;;;;19.12;37.88;101017.59;4968828;28;19918;-78
2021/05/03 16:46:28;;;;;;;;;;;;;;;19.07;38.05;101015.16;4973980;28;19918;-78
2021/05/03 16:49:12;;;;;;;;;;;;;;;19.03;38.19;101008.78;4967897;28;19915;-77
2021/05/03 16:51:56;;;;;;;;;;;;;;;19.02;39.56;101019.00;4966452;28;19922;-78
2021/05/03 16:54:41;;;;;;;;;;;;;;;18.95;39.07;101012.53;4968647;28;19918;-77
2021/05/03 16:57:26;;;;;;;;;;;;;;;18.94;39.21;101014.53;4968505;28;19914;-77
2021/05/03 17:00:11;;;;;;;;;;;;;;;18.95;39.01;101021.63;4972227;28;19914;-78
2021/05/03 17:02:56;;;;;;;;;;;;;;;18.94;38.73;101025.56;4971469;28;19914;-78